Waits, New York
Current Conditions -  °F | °C
As of 2:53 AM on Tuesday 27 Jan 2015 (Local Time) from KBGM Reporting Station
Overcast Overcast  
Wind Chill:   Ceiling: 3800
Heat Index: 15°   Visibility: 9mi
Dew Point: 10°   Wind: 9mph
Humidity: 80%   Direction: 10°N
Pressure: 29.74"   Gusts: NA
Location:  42.1349°N, 76.2495°W
Report Text: KBGM 270753Z AUTO 01008KT 9SM BKN038 OVC065 M09/M12 A2974 RMK AO2 SLP098 T10941122
Loading
Personal Weather Stations






























Interactive Weather Map New forecast layout! Learn more

10-Day Weather Forecast

Advertisements
Track Severe Weather on mobile